Terminal Aerodrome Forecast
Issued by NWS

Home | Current Version | Previous Version | Text Only | Print | Product List | Glossary On
Versions: 1 2 3 4 5 6 7 8 9 10 11 12 13 14 15 16 17 18 19 20 21 22 23
000
FTUS42 KFFC 011740
TAFFTY
TAF
KFTY 011740Z 0118/0218 22010KT P6SM -SHRA SCT030 BKN060
      TEMPO 0119/0122 4SM TSRA BR BKN025CB
     FM012300 23008KT P6SM VCSH OVC040
     FM020200 24005KT P6SM SCT060 BKN250
     FM021200 22006KT P6SM SCT030 BKN150
     FM021500 22008KT P6SM SCT040 BKN150=

USA.gov is the U.S. government's official web portal to all federal, state and local government web resources and services.